sensor_id;sensor_type;location;lat;lon;timestamp;pressure;altitude;pressure_sealevel;temperature;humidity
28312;BME280;15572;48.810;9.148;2023-02-12T00:01:43;100098.56;;;4.49;100.00
28312;BME280;15572;48.810;9.148;2023-02-12T00:06:40;100111.13;;;4.49;100.00
28312;BME280;15572;48.810;9.148;2023-02-12T00:11:36;100100.63;;;4.46;100.00
28312;BME280;15572;48.810;9.148;2023-02-12T00:16:33;100110.50;;;4.45;100.00
28312;BME280;15572;48.810;9.148;2023-02-12T00:21:30;100107.81;;;4.45;100.00
28312;BME280;15572;48.810;9.148;2023-02-12T00:26:27;100119.00;;;4.39;100.00
28312;BME280;15572;48.810;9.148;2023-02-12T00:31:26;100114.50;;;4.40;100.00
28312;BME280;15572;48.810;9.148;2023-02-12T00:36:24;100118.78;;;4.42;100.00
28312;BME280;15572;48.810;9.148;2023-02-12T00:41:23;100120.38;;;4.45;100.00
28312;BME280;15572;48.810;9.148;2023-02-12T00:46:20;100127.47;;;4.46;100.00
28312;BME280;15572;48.810;9.148;2023-02-12T00:51:17;100137.22;;;4.47;100.00
28312;BME280;15572;48.810;9.148;2023-02-12T00:56:13;100133.94;;;4.43;100.00
28312;BME280;15572;48.810;9.148;2023-02-12T01:01:11;100129.63;;;4.41;100.00
28312;BME280;15572;48.810;9.148;2023-02-12T01:06:08;100129.63;;;4.41;100.00
28312;BME280;15572;48.810;9.148;2023-02-12T01:11:05;100133.38;;;4.38;100.00
28312;BME280;15572;48.810;9.148;2023-02-12T01:16:06;100120.44;;;4.32;100.00
28312;BME280;15572;48.810;9.148;2023-02-12T01:21:10;100129.34;;;4.33;100.00
28312;BME280;15572;48.810;9.148;2023-02-12T01:26:07;100138.34;;;4.32;100.00
28312;BME280;15572;48.810;9.148;2023-02-12T01:31:10;100118.81;;;4.30;100.00
28312;BME280;15572;48.810;9.148;2023-02-12T01:36:09;100126.84;;;4.30;100.00
28312;BME280;15572;48.810;9.148;2023-02-12T01:41:08;100120.72;;;4.28;100.00
28312;BME280;15572;48.810;9.148;2023-02-12T01:46:06;100114.13;;;4.20;100.00
28312;BME280;15572;48.810;9.148;2023-02-12T01:51:04;100115.59;;;4.24;100.00
28312;BME280;15572;48.810;9.148;2023-02-12T01:56:05;100114.53;;;4.27;100.00
28312;BME280;15572;48.810;9.148;2023-02-12T02:01:03;100116.22;;;4.28;100.00
28312;BME280;15572;48.810;9.148;2023-02-12T02:06:05;100118.28;;;4.24;100.00
28312;BME280;15572;48.810;9.148;2023-02-12T02:11:05;100111.22;;;4.23;100.00
28312;BME280;15572;48.810;9.148;2023-02-12T02:16:25;100113.03;;;4.23;100.00
28312;BME280;15572;48.810;9.148;2023-02-12T02:21:44;100109.28;;;4.26;100.00
28312;BME280;15572;48.810;9.148;2023-02-12T02:32:07;100090.50;;;4.26;100.00
28312;BME280;15572;48.810;9.148;2023-02-12T02:37:12;100085.34;;;4.22;100.00
28312;BME280;15572;48.810;9.148;2023-02-12T02:42:13;100087.72;;;4.27;100.00
28312;BME280;15572;48.810;9.148;2023-02-12T02:47:13;100088.56;;;4.28;100.00
28312;BME280;15572;48.810;9.148;2023-02-12T02:52:16;100099.53;;;4.24;100.00
28312;BME280;15572;48.810;9.148;2023-02-12T02:57:16;100092.34;;;4.25;100.00
28312;BME280;15572;48.810;9.148;2023-02-12T03:02:17;100091.38;;;4.26;100.00
28312;BME280;15572;48.810;9.148;2023-02-12T03:07:17;100089.41;;;4.28;100.00
28312;BME280;15572;48.810;9.148;2023-02-12T03:12:20;100092.84;;;4.30;100.00
28312;BME280;15572;48.810;9.148;2023-02-12T03:17:22;100094.69;;;4.30;100.00
28312;BME280;15572;48.810;9.148;2023-02-12T03:22:23;100105.50;;;4.28;100.00
28312;BME280;15572;48.810;9.148;2023-02-12T03:27:26;100101.13;;;4.27;100.00
28312;BME280;15572;48.810;9.148;2023-02-12T03:32:29;100102.81;;;4.28;100.00
28312;BME280;15572;48.810;9.148;2023-02-12T03:37:31;100094.06;;;4.26;100.00
28312;BME280;15572;48.810;9.148;2023-02-12T03:42:34;100097.59;;;4.27;100.00
28312;BME280;15572;48.810;9.148;2023-02-12T03:47:41;100095.03;;;4.25;100.00
28312;BME280;15572;48.810;9.148;2023-02-12T03:52:40;100106.72;;;4.24;100.00
28312;BME280;15572;48.810;9.148;2023-02-12T03:57:40;100100.47;;;4.23;100.00
28312;BME280;15572;48.810;9.148;2023-02-12T04:02:39;100105.84;;;4.23;100.00
28312;BME280;15572;48.810;9.148;2023-02-12T04:07:36;100107.56;;;4.24;100.00
28312;BME280;15572;48.810;9.148;2023-02-12T04:12:38;100104.03;;;4.24;100.00
28312;BME280;15572;48.810;9.148;2023-02-12T04:17:46;100111.97;;;4.26;100.00
28312;BME280;15572;48.810;9.148;2023-02-12T04:22:53;100106.72;;;4.24;100.00
28312;BME280;15572;48.810;9.148;2023-02-12T04:27:56;100114.00;;;4.22;100.00
28312;BME280;15572;48.810;9.148;2023-02-12T04:32:58;100121.41;;;4.18;100.00
28312;BME280;15572;48.810;9.148;2023-02-12T04:38:00;100132.91;;;4.20;100.00
28312;BME280;15572;48.810;9.148;2023-02-12T04:42:58;100138.03;;;4.23;100.00
28312;BME280;15572;48.810;9.148;2023-02-12T04:47:56;100134.38;;;4.24;100.00
28312;BME280;15572;48.810;9.148;2023-02-12T04:52:53;100132.56;;;4.25;100.00
28312;BME280;15572;48.810;9.148;2023-02-12T04:57:49;100142.31;;;4.26;100.00
28312;BME280;15572;48.810;9.148;2023-02-12T05:02:45;100130.63;;;4.27;100.00
28312;BME280;15572;48.810;9.148;2023-02-12T05:07:44;100136.97;;;4.26;100.00
28312;BME280;15572;48.810;9.148;2023-02-12T05:12:41;100129.78;;;4.27;100.00
28312;BME280;15572;48.810;9.148;2023-02-12T05:17:37;100135.13;;;4.27;100.00
28312;BME280;15572;48.810;9.148;2023-02-12T05:22:34;100125.38;;;4.26;100.00
28312;BME280;15572;48.810;9.148;2023-02-12T05:27:32;100121.84;;;4.25;100.00
28312;BME280;15572;48.810;9.148;2023-02-12T05:32:28;100121.94;;;4.23;100.00
28312;BME280;15572;48.810;9.148;2023-02-12T05:37:25;100122.34;;;4.30;100.00
28312;BME280;15572;48.810;9.148;2023-02-12T05:42:21;100126.84;;;4.30;100.00
28312;BME280;15572;48.810;9.148;2023-02-12T05:47:19;100130.41;;;4.30;100.00
28312;BME280;15572;48.810;9.148;2023-02-12T05:52:15;100131.16;;;4.32;100.00
28312;BME280;15572;48.810;9.148;2023-02-12T05:57:12;100130.31;;;4.32;100.00
28312;BME280;15572;48.810;9.148;2023-02-12T06:02:08;100139.22;;;4.32;100.00
28312;BME280;15572;48.810;9.148;2023-02-12T06:07:06;100136.53;;;4.32;100.00
28312;BME280;15572;48.810;9.148;2023-02-12T06:12:03;100137.38;;;4.33;100.00
28312;BME280;15572;48.810;9.148;2023-02-12T06:16:59;100131.16;;;4.32;100.00
28312;BME280;15572;48.810;9.148;2023-02-12T06:21:56;100125.66;;;4.34;100.00
28312;BME280;15572;48.810;9.148;2023-02-12T06:26:54;100138.34;;;4.32;100.00
28312;BME280;15572;48.810;9.148;2023-02-12T06:31:50;100138.22;;;4.33;100.00
28312;BME280;15572;48.810;9.148;2023-02-12T06:36:47;100147.13;;;4.34;100.00
28312;BME280;15572;48.810;9.148;2023-02-12T06:41:43;100149.06;;;4.32;100.00
28312;BME280;15572;48.810;9.148;2023-02-12T06:46:41;100143.72;;;4.32;100.00
28312;BME280;15572;48.810;9.148;2023-02-12T06:51:37;100162.34;;;4.33;100.00
28312;BME280;15572;48.810;9.148;2023-02-12T06:56:35;100162.34;;;4.33;100.00
28312;BME280;15572;48.810;9.148;2023-02-12T07:01:32;100176.28;;;4.38;100.00
28312;BME280;15572;48.810;9.148;2023-02-12T07:06:32;100175.97;;;4.43;100.00
28312;BME280;15572;48.810;9.148;2023-02-12T07:11:30;100173.94;;;4.46;100.00
28312;BME280;15572;48.810;9.148;2023-02-12T07:16:27;100172.63;;;4.52;100.00
28312;BME280;15572;48.810;9.148;2023-02-12T07:21:24;100177.56;;;4.58;100.00
28312;BME280;15572;48.810;9.148;2023-02-12T07:26:22;100173.34;;;4.66;100.00
28312;BME280;15572;48.810;9.148;2023-02-12T07:31:20;100163.34;;;4.69;100.00
28312;BME280;15572;48.810;9.148;2023-02-12T07:36:18;100177.47;;;4.83;100.00
28312;BME280;15572;48.810;9.148;2023-02-12T07:41:16;100176.78;;;4.92;100.00
28312;BME280;15572;48.810;9.148;2023-02-12T07:46:16;100173.75;;;4.97;100.00
28312;BME280;15572;48.810;9.148;2023-02-12T07:51:15;100178.56;;;5.04;100.00
28312;BME280;15572;48.810;9.148;2023-02-12T07:56:15;100178.97;;;5.11;100.00
28312;BME280;15572;48.810;9.148;2023-02-12T08:01:18;100169.59;;;5.17;100.00
28312;BME280;15572;48.810;9.148;2023-02-12T08:06:16;100165.88;;;5.30;100.00
28312;BME280;15572;48.810;9.148;2023-02-12T08:11:14;100173.56;;;5.35;100.00
28312;BME280;15572;48.810;9.148;2023-02-12T08:16:13;100179.34;;;5.41;100.00
28312;BME280;15572;48.810;9.148;2023-02-12T08:21:12;100158.47;;;5.45;100.00
28312;BME280;15572;48.810;9.148;2023-02-12T08:26:12;100160.56;;;5.53;100.00
28312;BME280;15572;48.810;9.148;2023-02-12T08:31:10;100160.88;;;5.61;100.00
28312;BME280;15572;48.810;9.148;2023-02-12T08:36:09;100164.75;;;5.68;100.00
28312;BME280;15572;48.810;9.148;2023-02-12T08:41:09;100163.94;;;5.78;100.00
28312;BME280;15572;48.810;9.148;2023-02-12T08:46:07;100174.22;;;5.84;100.00
28312;BME280;15572;48.810;9.148;2023-02-12T08:51:06;100173.66;;;5.92;100.00
28312;BME280;15572;48.810;9.148;2023-02-12T08:56:04;100172.69;;;6.04;100.00
28312;BME280;15572;48.810;9.148;2023-02-12T09:01:02;100183.81;;;6.11;100.00
28312;BME280;15572;48.810;9.148;2023-02-12T09:06:01;100174.03;;;6.21;100.00
28312;BME280;15572;48.810;9.148;2023-02-12T09:10:58;100186.78;;;6.30;100.00
28312;BME280;15572;48.810;9.148;2023-02-12T09:15:54;100185.44;;;6.36;100.00
28312;BME280;15572;48.810;9.148;2023-02-12T09:20:52;100173.81;;;6.46;100.00
28312;BME280;15572;48.810;9.148;2023-02-12T09:25:49;100173.78;;;6.57;100.00
28312;BME280;15572;48.810;9.148;2023-02-12T09:30:45;100178.19;;;6.69;100.00
28312;BME280;15572;48.810;9.148;2023-02-12T09:35:42;100182.81;;;6.78;100.00
28312;BME280;15572;48.810;9.148;2023-02-12T09:40:45;100174.72;;;6.90;100.00
28312;BME280;15572;48.810;9.148;2023-02-12T09:45:51;100176.19;;;7.05;100.00
28312;BME280;15572;48.810;9.148;2023-02-12T09:50:53;100173.44;;;7.16;99.41
28312;BME280;15572;48.810;9.148;2023-02-12T09:55:51;100180.97;;;7.33;98.82
28312;BME280;15572;48.810;9.148;2023-02-12T10:00:48;100184.19;;;7.48;98.07
28312;BME280;15572;48.810;9.148;2023-02-12T10:05:48;100180.41;;;7.50;97.54
28312;BME280;15572;48.810;9.148;2023-02-12T10:10:50;100175.28;;;7.47;98.10
28312;BME280;15572;48.810;9.148;2023-02-12T10:15:51;100178.13;;;7.67;98.09
28312;BME280;15572;48.810;9.148;2023-02-12T10:20:56;100171.00;;;7.66;98.20
28312;BME280;15572;48.810;9.148;2023-02-12T10:25:55;100172.09;;;7.95;97.58
28312;BME280;15572;48.810;9.148;2023-02-12T10:30:56;100159.69;;;8.13;96.32
28312;BME280;15572;48.810;9.148;2023-02-12T10:36:01;100161.88;;;8.29;96.00
28312;BME280;15572;48.810;9.148;2023-02-12T10:40:59;100172.91;;;8.37;95.65
28312;BME280;15572;48.810;9.148;2023-02-12T10:45:58;100169.94;;;8.40;95.88
28312;BME280;15572;48.810;9.148;2023-02-12T10:51:07;100169.34;;;8.36;96.05
28312;BME280;15572;48.810;9.148;2023-02-12T10:56:14;100155.31;;;8.42;96.13
28312;BME280;15572;48.810;9.148;2023-02-12T11:01:19;100156.97;;;8.34;96.41
28312;BME280;15572;48.810;9.148;2023-02-12T11:06:19;100156.03;;;8.44;96.66
28312;BME280;15572;48.810;9.148;2023-02-12T11:11:19;100149.38;;;8.49;96.19
28312;BME280;15572;48.810;9.148;2023-02-12T11:16:29;100150.53;;;8.56;95.65
28312;BME280;15572;48.810;9.148;2023-02-12T11:21:26;100146.25;;;8.43;96.28
28312;BME280;15572;48.810;9.148;2023-02-12T11:26:26;100146.94;;;8.45;96.36
28312;BME280;15572;48.810;9.148;2023-02-12T11:31:26;100140.69;;;8.45;95.73
28312;BME280;15572;48.810;9.148;2023-02-12T11:36:25;100138.44;;;8.50;95.37
28312;BME280;15572;48.810;9.148;2023-02-12T11:41:25;100141.88;;;8.62;94.90
28312;BME280;15572;48.810;9.148;2023-02-12T11:46:30;100132.38;;;8.77;94.05
28312;BME280;15572;48.810;9.148;2023-02-12T11:51:28;100126.31;;;8.94;93.80
28312;BME280;15572;48.810;9.148;2023-02-12T11:56:40;100120.66;;;8.97;92.91
28312;BME280;15572;48.810;9.148;2023-02-12T12:01:39;100127.78;;;9.17;92.17
28312;BME280;15572;48.810;9.148;2023-02-12T12:06:39;100129.31;;;9.10;91.13
28312;BME280;15572;48.810;9.148;2023-02-12T12:11:46;100110.56;;;9.18;91.41
28312;BME280;15572;48.810;9.148;2023-02-12T12:16:54;100117.81;;;9.47;90.37
28312;BME280;15572;48.810;9.148;2023-02-12T12:22:20;100116.53;;;9.60;89.24
28312;BME280;15572;48.810;9.148;2023-02-12T12:27:22;100112.63;;;9.72;87.86
28312;BME280;15572;48.810;9.148;2023-02-12T12:32:40;100110.78;;;9.92;86.80
28312;BME280;15572;48.810;9.148;2023-02-12T12:37:42;100104.59;;;10.19;84.98
28312;BME280;15572;48.810;9.148;2023-02-12T12:43:02;100099.81;;;10.58;82.54
28312;BME280;15572;48.810;9.148;2023-02-12T12:48:15;100102.25;;;10.61;80.42
28312;BME280;15572;48.810;9.148;2023-02-12T12:53:34;100087.25;;;10.67;80.45
28312;BME280;15572;48.810;9.148;2023-02-12T12:58:42;100081.41;;;11.07;79.57
28312;BME280;15572;48.810;9.148;2023-02-12T13:04:05;100075.41;;;11.74;76.19
28312;BME280;15572;48.810;9.148;2023-02-12T13:09:22;100071.19;;;12.05;72.80
28312;BME280;15572;48.810;9.148;2023-02-12T13:14:33;100067.38;;;12.24;71.60
28312;BME280;15572;48.810;9.148;2023-02-12T13:19:43;100058.28;;;12.33;70.88
28312;BME280;15572;48.810;9.148;2023-02-12T13:24:46;100053.13;;;12.22;71.19
28312;BME280;15572;48.810;9.148;2023-02-12T13:29:48;100045.75;;;12.48;71.58
28312;BME280;15572;48.810;9.148;2023-02-12T13:34:48;100048.91;;;12.78;69.47
28312;BME280;15572;48.810;9.148;2023-02-12T13:39:47;100042.03;;;13.24;65.98
28312;BME280;15572;48.810;9.148;2023-02-12T13:44:49;100040.00;;;13.50;64.96
28312;BME280;15572;48.810;9.148;2023-02-12T13:49:51;100031.84;;;13.50;63.79
28312;BME280;15572;48.810;9.148;2023-02-12T13:54:57;100025.53;;;13.58;63.29
28312;BME280;15572;48.810;9.148;2023-02-12T13:59:55;100029.94;;;13.67;61.22
28312;BME280;15572;48.810;9.148;2023-02-12T14:04:56;100025.50;;;13.74;62.79
28312;BME280;15572;48.810;9.148;2023-02-12T14:10:02;100026.72;;;13.71;61.70
28312;BME280;15572;48.810;9.148;2023-02-12T14:15:05;100022.13;;;13.56;62.11
28312;BME280;15572;48.810;9.148;2023-02-12T14:20:07;100022.16;;;13.39;62.70
28312;BME280;15572;48.810;9.148;2023-02-12T14:25:29;100012.25;;;12.98;65.07
28312;BME280;15572;48.810;9.148;2023-02-12T14:30:30;100005.28;;;12.87;65.09
28312;BME280;15572;48.810;9.148;2023-02-12T14:35:32;100004.09;;;12.82;65.92
28312;BME280;15572;48.810;9.148;2023-02-12T14:40:39;100002.09;;;12.42;67.62
28312;BME280;15572;48.810;9.148;2023-02-12T14:45:37;99997.22;;;12.61;67.40
28312;BME280;15572;48.810;9.148;2023-02-12T14:50:42;100005.59;;;12.76;65.84
28312;BME280;15572;48.810;9.148;2023-02-12T14:55:45;99994.69;;;12.68;66.43
28312;BME280;15572;48.810;9.148;2023-02-12T15:00:45;99995.91;;;12.65;67.09
28312;BME280;15572;48.810;9.148;2023-02-12T15:05:48;99998.69;;;12.32;68.32
28312;BME280;15572;48.810;9.148;2023-02-12T15:10:49;100006.41;;;12.10;68.24
28312;BME280;15572;48.810;9.148;2023-02-12T15:15:50;99998.19;;;11.68;69.91
28312;BME280;15572;48.810;9.148;2023-02-12T15:20:51;100006.09;;;11.36;71.27
28312;BME280;15572;48.810;9.148;2023-02-12T15:26:11;99994.38;;;10.92;73.41
28312;BME280;15572;48.810;9.148;2023-02-12T15:31:09;99989.50;;;10.60;74.61
28312;BME280;15572;48.810;9.148;2023-02-12T15:36:29;99988.41;;;10.26;76.68
28312;BME280;15572;48.810;9.148;2023-02-12T15:41:48;99982.09;;;9.80;80.05
28312;BME280;15572;48.810;9.148;2023-02-12T15:46:57;99988.75;;;9.49;82.23
28312;BME280;15572;48.810;9.148;2023-02-12T15:51:55;99982.25;;;9.32;84.11
28312;BME280;15572;48.810;9.148;2023-02-12T15:56:53;99979.41;;;9.14;84.99
28312;BME280;15572;48.810;9.148;2023-02-12T16:01:55;99977.03;;;8.92;86.41
28312;BME280;15572;48.810;9.148;2023-02-12T16:06:52;99976.47;;;8.69;88.54
28312;BME280;15572;48.810;9.148;2023-02-12T16:11:54;99978.03;;;8.53;89.58
28312;BME280;15572;48.810;9.148;2023-02-12T16:17:32;99979.69;;;8.34;90.99
28312;BME280;15572;48.810;9.148;2023-02-12T16:22:39;99979.78;;;8.14;92.47
28312;BME280;15572;48.810;9.148;2023-02-12T16:27:42;99977.34;;;8.01;93.71
28312;BME280;15572;48.810;9.148;2023-02-12T16:32:44;99990.50;;;7.85;95.16
28312;BME280;15572;48.810;9.148;2023-02-12T16:37:44;99995.97;;;7.74;95.92
28312;BME280;15572;48.810;9.148;2023-02-12T16:42:55;99992.75;;;7.59;96.86
28312;BME280;15572;48.810;9.148;2023-02-12T16:53:25;100004.72;;;7.36;98.22
28312;BME280;15572;48.810;9.148;2023-02-12T16:58:55;100004.19;;;7.21;99.45
28312;BME280;15572;48.810;9.148;2023-02-12T17:09:43;100022.16;;;7.00;100.00
28312;BME280;15572;48.810;9.148;2023-02-12T17:14:45;100020.38;;;6.89;100.00
28312;BME280;15572;48.810;9.148;2023-02-12T17:19:41;100031.53;;;6.85;100.00
28312;BME280;15572;48.810;9.148;2023-02-12T17:24:38;100033.44;;;6.73;100.00
28312;BME280;15572;48.810;9.148;2023-02-12T17:29:34;100038.59;;;6.65;100.00
28312;BME280;15572;48.810;9.148;2023-02-12T17:34:32;100035.81;;;6.55;100.00
28312;BME280;15572;48.810;9.148;2023-02-12T17:39:31;100039.78;;;6.40;100.00
28312;BME280;15572;48.810;9.148;2023-02-12T17:44:27;100037.72;;;6.32;100.00
28312;BME280;15572;48.810;9.148;2023-02-12T17:49:24;100041.53;;;6.19;100.00
28312;BME280;15572;48.810;9.148;2023-02-12T17:54:22;100046.06;;;6.07;100.00
28312;BME280;15572;48.810;9.148;2023-02-12T17:59:18;100041.44;;;5.98;100.00
28312;BME280;15572;48.810;9.148;2023-02-12T18:04:15;100041.28;;;5.88;100.00
28312;BME280;15572;48.810;9.148;2023-02-12T18:09:11;100042.88;;;5.80;100.00
28312;BME280;15572;48.810;9.148;2023-02-12T18:14:10;100053.25;;;5.73;100.00
28312;BME280;15572;48.810;9.148;2023-02-12T18:19:06;100057.63;;;5.63;100.00
28312;BME280;15572;48.810;9.148;2023-02-12T18:24:03;100058.72;;;5.49;100.00
28312;BME280;15572;48.810;9.148;2023-02-12T18:29:00;100045.13;;;5.29;100.00
28312;BME280;15572;48.810;9.148;2023-02-12T18:33:58;100047.78;;;5.18;100.00
28312;BME280;15572;48.810;9.148;2023-02-12T18:38:54;100044.31;;;5.04;100.00
28312;BME280;15572;48.810;9.148;2023-02-12T18:43:51;100040.94;;;4.79;100.00
28312;BME280;15572;48.810;9.148;2023-02-12T18:48:48;100043.41;;;4.58;100.00
28312;BME280;15572;48.810;9.148;2023-02-12T18:53:46;100038.53;;;4.39;100.00
28312;BME280;15572;48.810;9.148;2023-02-12T18:58:43;100053.84;;;4.26;100.00
28312;BME280;15572;48.810;9.148;2023-02-12T19:03:40;100055.78;;;4.11;100.00
28312;BME280;15572;48.810;9.148;2023-02-12T19:08:36;100051.94;;;4.03;100.00
28312;BME280;15572;48.810;9.148;2023-02-12T19:13:34;100058.31;;;3.89;100.00
28312;BME280;15572;48.810;9.148;2023-02-12T19:18:31;100065.94;;;3.83;100.00
28312;BME280;15572;48.810;9.148;2023-02-12T19:23:27;100059.53;;;3.72;100.00
28312;BME280;15572;48.810;9.148;2023-02-12T19:28:23;100055.53;;;3.53;100.00
28312;BME280;15572;48.810;9.148;2023-02-12T19:33:21;100063.38;;;3.43;100.00
28312;BME280;15572;48.810;9.148;2023-02-12T19:38:18;100050.19;;;3.27;100.00
28312;BME280;15572;48.810;9.148;2023-02-12T19:43:14;100064.66;;;3.25;100.00
28312;BME280;15572;48.810;9.148;2023-02-12T19:48:11;100068.06;;;3.14;100.00
28312;BME280;15572;48.810;9.148;2023-02-12T19:53:08;100073.84;;;3.08;100.00
28312;BME280;15572;48.810;9.148;2023-02-12T19:58:05;100073.63;;;2.99;100.00
28312;BME280;15572;48.810;9.148;2023-02-12T20:03:03;100068.91;;;3.02;100.00
28312;BME280;15572;48.810;9.148;2023-02-12T20:08:00;100076.78;;;2.91;100.00
28312;BME280;15572;48.810;9.148;2023-02-12T20:12:57;100069.06;;;2.86;100.00
28312;BME280;15572;48.810;9.148;2023-02-12T20:17:54;100071.94;;;2.83;100.00
28312;BME280;15572;48.810;9.148;2023-02-12T20:22:50;100077.50;;;2.80;100.00
28312;BME280;15572;48.810;9.148;2023-02-12T20:27:47;100076.75;;;2.78;100.00
28312;BME280;15572;48.810;9.148;2023-02-12T20:32:46;100080.34;;;2.65;100.00
28312;BME280;15572;48.810;9.148;2023-02-12T20:37:43;100079.34;;;2.53;100.00
28312;BME280;15572;48.810;9.148;2023-02-12T20:42:40;100080.97;;;2.41;100.00
28312;BME280;15572;48.810;9.148;2023-02-12T20:47:36;100090.00;;;2.26;100.00
28312;BME280;15572;48.810;9.148;2023-02-12T20:52:34;100083.75;;;2.13;100.00
28312;BME280;15572;48.810;9.148;2023-02-12T20:57:31;100088.41;;;2.09;100.00
28312;BME280;15572;48.810;9.148;2023-02-12T21:02:28;100085.56;;;1.98;100.00
28312;BME280;15572;48.810;9.148;2023-02-12T21:07:26;100096.19;;;1.86;100.00
28312;BME280;15572;48.810;9.148;2023-02-12T21:17:24;100090.94;;;1.70;100.00
28312;BME280;15572;48.810;9.148;2023-02-12T21:22:21;100090.44;;;1.63;100.00
28312;BME280;15572;48.810;9.148;2023-02-12T21:27:18;100082.53;;;1.62;100.00
28312;BME280;15572;48.810;9.148;2023-02-12T21:32:14;100074.88;;;1.56;100.00
28312;BME280;15572;48.810;9.148;2023-02-12T21:37:12;100078.22;;;1.45;100.00
28312;BME280;15572;48.810;9.148;2023-02-12T21:42:08;100073.09;;;1.42;100.00
28312;BME280;15572;48.810;9.148;2023-02-12T21:47:05;100073.09;;;1.42;100.00
28312;BME280;15572;48.810;9.148;2023-02-12T21:52:03;100076.22;;;1.35;100.00
28312;BME280;15572;48.810;9.148;2023-02-12T21:57:02;100072.09;;;1.29;100.00
28312;BME280;15572;48.810;9.148;2023-02-12T22:01:59;100073.53;;;1.20;100.00
28312;BME280;15572;48.810;9.148;2023-02-12T22:06:56;100076.41;;;1.17;100.00
28312;BME280;15572;48.810;9.148;2023-02-12T22:11:57;100081.81;;;1.16;100.00
28312;BME280;15572;48.810;9.148;2023-02-12T22:16:54;100070.56;;;1.11;100.00
28312;BME280;15572;48.810;9.148;2023-02-12T22:21:51;100074.38;;;1.07;100.00
28312;BME280;15572;48.810;9.148;2023-02-12T22:26:47;100075.31;;;1.06;100.00
28312;BME280;15572;48.810;9.148;2023-02-12T22:31:44;100074.81;;;0.99;100.00
28312;BME280;15572;48.810;9.148;2023-02-12T22:36:43;100073.56;;;0.91;100.00
28312;BME280;15572;48.810;9.148;2023-02-12T22:41:40;100081.81;;;0.86;100.00
28312;BME280;15572;48.810;9.148;2023-02-12T22:46:37;100076.75;;;0.81;100.00
28312;BME280;15572;48.810;9.148;2023-02-12T22:51:34;100088.56;;;0.77;100.00
28312;BME280;15572;48.810;9.148;2023-02-12T22:56:34;100074.81;;;0.69;100.00
28312;BME280;15572;48.810;9.148;2023-02-12T23:01:30;100082.38;;;0.61;100.00
28312;BME280;15572;48.810;9.148;2023-02-12T23:06:29;100074.63;;;0.72;100.00
28312;BME280;15572;48.810;9.148;2023-02-12T23:11:27;100086.75;;;0.78;100.00
28312;BME280;15572;48.810;9.148;2023-02-12T23:16:25;100087.38;;;0.67;100.00
28312;BME280;15572;48.810;9.148;2023-02-12T23:21:21;100085.72;;;0.65;100.00
28312;BME280;15572;48.810;9.148;2023-02-12T23:26:18;100087.91;;;0.58;100.00
28312;BME280;15572;48.810;9.148;2023-02-12T23:31:15;100086.47;;;0.53;100.00
28312;BME280;15572;48.810;9.148;2023-02-12T23:36:13;100080.88;;;0.41;100.00
28312;BME280;15572;48.810;9.148;2023-02-12T23:41:10;100084.06;;;0.32;100.00
28312;BME280;15572;48.810;9.148;2023-02-12T23:46:06;100086.47;;;0.37;100.00
28312;BME280;15572;48.810;9.148;2023-02-12T23:51:03;100091.03;;;0.35;100.00
28312;BME280;15572;48.810;9.148;2023-02-12T23:56:01;100084.16;;;0.31;100.00
